Terminal Aerodrome Forecast
Issued by NWS Sterling, VA

Current Version | Previous Version | Graphics & Text | Print | Product List | Glossary On
Versions: 1 2 3 4 5 6 7 8 9 10 11 12 13 14 15 16 17 18 19 20 21 22 23 24 25 26 27 28 29
880
FTUS41 KLWX 281735
TAFDCA
TAF
KDCA 281735Z 2818/2918 26005KT P6SM -SHRA VCTS SCT025CB OVC035
     FM290000 31005KT P6SM SCT025 OVC050
     FM290600 35008KT P6SM BKN010 BKN025
     FM291100 35009KT P6SM SCT025 BKN050
     FM291200 35009KT P6SM FEW025 SCT070=

USA.gov is the U.S. government's official web portal to all federal, state and local government web resources and services.